Pocono Manor, Pennsylvania
Current Conditions -  °F | °C
As of 8:53 PM on Saturday 25 Oct 2014 (Local Time) from KMPO Reporting Station
Clear Clear  
Wind Chill: 57°   Ceiling: Unl
Heat Index: 57°   Visibility: 10mi
Dew Point: 44°   Wind: 16mph
Humidity: 62%   Direction: 270°W
Pressure: 29.62"   Gusts: NA
Location:  41.1°N, 75.36°W
Report Text: KMPO 260053Z AUTO 27014KT 10SM CLR 14/07 A2962 RMK AO2 SLP030 T01390067
Loading
Personal Weather Stations






























Interactive Weather Map
Tropical Storm Tracking
New forecast layout! Learn more

10-Day Weather Forecast

Advertisements
Track Severe Weather on mobile